createdAt,value
2018-02-05T00:02:00.609Z,18.20
2018-02-05T00:04:28.173Z,17.90
2018-02-05T00:06:55.764Z,18.80
2018-02-05T00:09:23.350Z,19.52
2018-02-05T00:11:50.916Z,16.85
2018-02-05T00:14:19.112Z,18.30
2018-02-05T00:16:46.693Z,18.37
2018-02-05T00:19:14.256Z,20.25
2018-02-05T00:21:41.853Z,18.70
2018-02-05T00:24:10.209Z,18.58
2018-02-05T00:26:37.772Z,16.83
2018-02-05T00:29:05.374Z,19.48
2018-02-05T00:31:32.974Z,19.85
2018-02-05T00:34:01.327Z,20.00
2018-02-05T00:36:28.888Z,20.00
2018-02-05T00:38:56.447Z,17.10
2018-02-05T00:41:24.028Z,17.62
2018-02-05T00:43:52.451Z,19.12
2018-02-05T00:46:20.796Z,17.35
2018-02-05T00:48:48.388Z,18.55
2018-02-05T00:51:15.951Z,17.58
2018-02-05T00:53:43.525Z,19.58
2018-02-05T00:56:11.101Z,18.48
2018-02-05T00:58:38.768Z,18.10
2018-02-05T01:01:06.359Z,18.95
2018-02-05T01:03:33.925Z,17.30
2018-02-05T01:06:01.480Z,17.33
2018-02-05T01:08:29.156Z,18.30
2018-02-05T01:10:56.742Z,18.05
2018-02-05T01:13:24.381Z,19.05
2018-02-05T01:15:51.957Z,19.00
2018-02-05T01:18:19.617Z,21.05
2018-02-05T01:20:47.188Z,18.80
2018-02-05T01:23:14.760Z,17.65
2018-02-05T01:25:43.092Z,17.90
2018-02-05T01:28:10.662Z,15.68
2018-02-05T01:30:38.243Z,17.23
2018-02-05T01:33:06.012Z,16.73
2018-02-05T01:35:33.575Z,16.52
2018-02-05T01:38:01.135Z,16.80
2018-02-05T01:40:28.711Z,16.80
2018-02-05T01:42:56.351Z,17.98
2018-02-05T01:45:24.708Z,15.38
2018-02-05T01:47:52.319Z,18.05
2018-02-05T01:50:19.853Z,15.82
2018-02-05T01:52:48.224Z,15.95
2018-02-05T01:55:16.926Z,16.48
2018-02-05T01:57:44.508Z,16.12
2018-02-05T02:00:12.352Z,14.63
2018-02-05T02:02:39.921Z,15.68
2018-02-05T02:05:07.516Z,16.67
2018-02-05T02:07:38.131Z,15.70
2018-02-05T02:10:07.211Z,14.15
2018-02-05T02:12:36.399Z,14.95
2018-02-05T02:15:05.608Z,16.30
2018-02-05T02:17:34.828Z,14.85
2018-02-05T02:20:04.043Z,15.10
2018-02-05T02:22:33.196Z,14.98
2018-02-05T02:25:02.455Z,14.70
2018-02-05T02:27:31.671Z,15.30
2018-02-05T02:30:00.935Z,14.15
2018-02-05T02:32:30.199Z,15.45
2018-02-05T02:34:59.428Z,15.23
2018-02-05T02:37:28.644Z,15.95
2018-02-05T02:39:57.860Z,15.45
2018-02-05T02:42:27.320Z,17.85
2018-02-05T02:44:56.540Z,14.70
2018-02-05T02:47:25.765Z,15.10
2018-02-05T02:49:54.971Z,15.85
2018-02-05T02:52:24.211Z,14.77
2018-02-05T02:54:53.445Z,15.07
2018-02-05T02:57:22.578Z,14.30
2018-02-05T02:59:51.686Z,12.32
2018-02-05T03:02:20.912Z,13.05
2018-02-05T03:04:50.699Z,13.23
2018-02-05T03:07:19.917Z,13.23
2018-02-05T03:09:49.329Z,12.23
2018-02-05T03:12:18.550Z,14.15
2018-02-05T03:14:47.848Z,13.80
2018-02-05T03:17:17.119Z,15.00
2018-02-05T03:19:46.325Z,13.77
2018-02-05T03:22:15.235Z,14.40
2018-02-05T03:24:46.383Z,14.93
2018-02-05T03:27:15.603Z,15.45
2018-02-05T03:29:44.835Z,13.60
2018-02-05T03:32:13.902Z,13.20
2018-02-05T03:34:42.940Z,12.82
2018-02-05T03:37:15.023Z,12.25
2018-02-05T03:39:44.040Z,13.52
2018-02-05T03:42:13.096Z,14.02
2018-02-05T03:44:42.188Z,12.65
2018-02-05T03:47:11.274Z,14.30
2018-02-05T03:49:40.355Z,12.65
2018-02-05T03:52:09.536Z,13.65
2018-02-05T03:54:38.622Z,13.70
2018-02-05T03:57:07.728Z,14.35
2018-02-05T03:59:36.827Z,14.65
2018-02-05T04:02:06.437Z,13.90
2018-02-05T04:04:35.523Z,12.70
2018-02-05T04:07:21.461Z,14.63
2018-02-05T04:09:50.675Z,14.90
2018-02-05T04:12:19.866Z,15.93
2018-02-05T04:14:49.132Z,17.17
2018-02-05T04:17:18.362Z,17.95
2018-02-05T04:19:47.562Z,19.87
2018-02-05T04:22:16.698Z,20.45
2018-02-05T04:24:47.287Z,18.90
2018-02-05T04:27:16.316Z,18.65
2018-02-05T04:29:46.643Z,17.17
2018-02-05T04:32:15.692Z,16.10
2018-02-05T04:34:44.799Z,19.10
2018-02-05T04:37:13.987Z,18.10
2018-02-05T04:39:43.103Z,18.87
2018-02-05T04:42:12.322Z,18.42
2018-02-05T04:44:41.418Z,20.10
2018-02-05T04:47:10.664Z,20.40
2018-02-05T04:49:39.879Z,19.70
2018-02-05T04:52:09.055Z,21.52
2018-02-05T04:54:38.290Z,19.90
2018-02-05T04:57:07.546Z,20.50
2018-02-05T04:59:36.757Z,18.42
2018-02-05T05:02:06.365Z,19.80
2018-02-05T05:04:35.493Z,20.40
2018-02-05T05:07:04.624Z,20.83
2018-02-05T05:09:33.703Z,18.10
2018-02-05T05:12:02.795Z,20.77
2018-02-05T05:14:32.481Z,20.70
2018-02-05T05:17:01.590Z,19.65
2018-02-05T05:19:30.994Z,21.52
2018-02-05T05:22:00.576Z,19.50
2018-02-05T05:24:29.800Z,20.30
2018-02-05T05:26:58.890Z,21.33
2018-02-05T05:29:28.234Z,20.40
2018-02-05T05:31:57.573Z,19.75
2018-02-05T05:34:26.723Z,21.58
2018-02-05T05:36:55.931Z,21.48
2018-02-05T05:39:25.186Z,20.95
2018-02-05T05:41:54.653Z,21.40
2018-02-05T05:44:23.850Z,19.77
2018-02-05T05:46:53.059Z,21.55
2018-02-05T05:49:22.262Z,23.00
2018-02-05T05:51:51.576Z,22.25
2018-02-05T05:54:20.523Z,22.67
2018-02-05T05:56:53.670Z,22.02
2018-02-05T05:59:22.742Z,21.17
2018-02-05T06:01:51.730Z,21.98
2018-02-05T06:04:22.854Z,20.30
2018-02-05T06:06:51.779Z,21.50
2018-02-05T06:09:22.789Z,21.92
2018-02-05T06:11:53.970Z,22.65
2018-02-05T06:14:22.946Z,21.70
2018-02-05T06:16:51.971Z,21.10
2018-02-05T06:19:23.063Z,22.33
2018-02-05T06:21:52.060Z,21.25
2018-02-05T06:24:21.046Z,20.33
2018-02-05T06:26:51.327Z,23.95
2018-02-05T06:29:20.327Z,21.48
2018-02-05T06:31:49.550Z,20.92
2018-02-05T06:34:20.675Z,22.15
2018-02-05T06:36:49.759Z,21.25
2018-02-05T06:39:18.905Z,20.10
2018-02-05T06:41:48.015Z,22.87
2018-02-05T06:44:17.250Z,22.48
2018-02-05T06:46:46.491Z,24.08
2018-02-05T06:49:15.675Z,20.50
2018-02-05T06:51:50.856Z,21.30
2018-02-05T06:54:26.138Z,21.67
2018-02-05T06:56:55.208Z,21.10
2018-02-05T06:59:24.372Z,21.70
2018-02-05T07:01:53.503Z,21.95
2018-02-05T07:04:28.509Z,22.73
2018-02-05T07:06:59.555Z,21.75
2018-02-05T07:09:28.750Z,20.12
2018-02-05T07:11:57.977Z,23.17
2018-02-05T07:14:27.385Z,21.20
2018-02-05T07:16:56.519Z,22.67
2018-02-05T07:19:25.734Z,22.30
2018-02-05T07:21:54.839Z,20.98
2018-02-05T07:24:23.818Z,22.37
2018-02-05T07:26:54.943Z,20.30
2018-02-05T07:29:26.196Z,22.75
2018-02-05T07:31:57.399Z,22.60
2018-02-05T07:34:27.568Z,22.92
2018-02-05T07:36:56.742Z,22.48
2018-02-05T07:39:26.093Z,23.00
2018-02-05T07:41:55.698Z,22.33
2018-02-05T07:44:24.785Z,22.35
2018-02-05T07:46:53.867Z,24.45
2018-02-05T07:49:23.119Z,24.52
2018-02-05T07:51:52.254Z,23.25
2018-02-05T07:54:21.195Z,22.62
2018-02-05T07:56:52.320Z,22.90
2018-02-05T07:59:21.309Z,21.83
2018-02-05T08:01:50.383Z,22.55
2018-02-05T08:04:19.441Z,23.08
2018-02-05T08:06:48.476Z,22.62
2018-02-05T08:09:17.555Z,21.20
2018-02-05T08:11:46.554Z,23.17
2018-02-05T08:14:15.592Z,23.92
2018-02-05T08:16:44.724Z,21.52
2018-02-05T08:19:13.699Z,20.58
2018-02-05T08:21:42.651Z,21.85
2018-02-05T08:24:11.623Z,23.67
2018-02-05T08:26:40.587Z,34.17
2018-02-05T08:29:09.604Z,22.85
2018-02-05T08:31:38.702Z,22.20
2018-02-05T08:34:09.502Z,20.73
2018-02-05T08:36:38.493Z,23.05
2018-02-05T08:39:07.483Z,23.85
2018-02-05T08:41:36.860Z,21.15
2018-02-05T08:44:09.129Z,20.65
2018-02-05T08:46:38.117Z,19.90
2018-02-05T08:49:07.276Z,21.15
2018-02-05T08:51:37.614Z,21.27
2018-02-05T08:54:06.726Z,20.42
2018-02-05T08:56:36.071Z,19.55
2018-02-05T08:59:05.007Z,18.05
2018-02-05T09:01:34.086Z,19.20
2018-02-05T09:04:03.211Z,18.80
2018-02-05T09:06:32.315Z,17.98
2018-02-05T09:09:01.562Z,20.00
2018-02-05T09:11:30.679Z,20.83
2018-02-05T09:14:00.494Z,19.08
2018-02-05T09:16:29.455Z,17.27
2018-02-05T09:19:00.625Z,17.45
2018-02-05T09:21:29.638Z,15.90
2018-02-05T09:23:58.638Z,16.73
2018-02-05T09:26:27.682Z,15.73
2018-02-05T09:28:56.800Z,16.55
2018-02-05T09:31:26.031Z,15.77
2018-02-05T09:33:55.186Z,15.68
2018-02-05T09:36:24.294Z,16.10
2018-02-05T09:38:53.636Z,16.08
2018-02-05T09:41:22.867Z,16.30
2018-02-05T09:43:52.271Z,15.43
2018-02-05T09:46:21.480Z,14.35
2018-02-05T09:48:50.679Z,16.05
2018-02-05T09:51:19.893Z,14.05
2018-02-05T09:53:49.119Z,15.35
2018-02-05T09:56:20.505Z,14.02
2018-02-05T09:58:49.986Z,14.95
2018-02-05T10:01:21.479Z,13.80
2018-02-05T10:03:50.758Z,14.60
2018-02-05T10:06:19.976Z,14.02
2018-02-05T10:08:49.174Z,14.30
2018-02-05T10:11:18.398Z,14.30
2018-02-05T10:13:47.644Z,14.90
2018-02-05T10:16:18.607Z,13.73
2018-02-05T10:18:48.143Z,14.30
2018-02-05T10:21:17.525Z,15.05
2018-02-05T10:23:46.762Z,13.75
2018-02-05T10:26:15.969Z,14.10
2018-02-05T10:28:47.587Z,12.98
2018-02-05T10:31:16.832Z,12.98
2018-02-05T10:33:46.051Z,13.95
2018-02-05T10:36:15.525Z,13.32
2018-02-05T10:38:47.221Z,13.95
2018-02-05T10:41:21.697Z,13.20
2018-02-05T10:43:51.235Z,13.10
2018-02-05T10:46:20.464Z,13.82
2018-02-05T10:48:49.677Z,13.48
2018-02-05T10:51:18.942Z,14.80
2018-02-05T10:53:48.142Z,13.32
2018-02-05T10:56:17.362Z,13.52
2018-02-05T10:58:46.603Z,13.13
2018-02-05T11:01:15.855Z,12.80
2018-02-05T11:03:45.059Z,11.77
2018-02-05T11:06:14.294Z,11.55
2018-02-05T11:08:43.529Z,12.52
2018-02-05T11:11:12.736Z,12.98
2018-02-05T11:13:42.035Z,13.02
2018-02-05T11:16:11.251Z,13.10
2018-02-05T11:18:40.487Z,12.32
2018-02-05T11:21:09.693Z,11.95
2018-02-05T11:23:42.044Z,12.18
2018-02-05T11:26:11.820Z,12.40
2018-02-05T11:28:41.665Z,12.75
2018-02-05T11:31:10.912Z,10.30
2018-02-05T11:33:40.187Z,11.55
2018-02-05T11:36:09.493Z,10.73
2018-02-05T11:38:38.730Z,9.90
2018-02-05T11:41:07.979Z,10.63
2018-02-05T11:43:37.216Z,11.55
2018-02-05T11:46:06.441Z,10.52
2018-02-05T11:48:35.711Z,11.52
2018-02-05T11:51:04.953Z,11.32
2018-02-05T11:53:34.272Z,10.85
2018-02-05T11:56:03.495Z,12.15
2018-02-05T11:58:32.721Z,11.43
2018-02-05T12:01:01.953Z,10.60
2018-02-05T12:03:31.284Z,10.32
2018-02-05T12:06:00.575Z,9.63
2018-02-05T12:08:29.853Z,10.20
2018-02-05T12:10:59.215Z,10.88
2018-02-05T12:13:28.438Z,10.57
2018-02-05T12:15:57.658Z,11.38
2018-02-05T12:18:26.869Z,10.82
2018-02-05T12:20:56.092Z,9.88
2018-02-05T12:23:25.332Z,9.85
2018-02-05T12:25:54.623Z,10.10
2018-02-05T12:28:23.839Z,10.60
2018-02-05T12:30:53.051Z,8.48
2018-02-05T12:33:22.275Z,9.80
2018-02-05T12:35:51.494Z,10.40
2018-02-05T12:38:20.712Z,10.50
2018-02-05T12:40:49.917Z,9.45
2018-02-05T12:43:19.148Z,10.18
2018-02-05T12:45:48.371Z,9.23
2018-02-05T12:48:17.588Z,9.93
2018-02-05T12:50:46.816Z,10.07
2018-02-05T12:53:16.039Z,9.45
2018-02-05T12:55:45.264Z,9.30
2018-02-05T12:58:14.482Z,9.55
2018-02-05T13:00:48.268Z,9.13
2018-02-05T13:03:29.347Z,28.87
2018-02-05T13:06:03.569Z,17.03
2018-02-05T13:08:32.786Z,9.40
2018-02-05T13:11:01.991Z,10.27
2018-02-05T13:13:31.216Z,10.00
2018-02-05T13:16:00.419Z,9.07
2018-02-05T13:18:29.627Z,10.40
2018-02-05T13:20:58.843Z,11.53
2018-02-05T13:29:05.232Z,9.73
2018-02-05T13:31:34.448Z,10.10
2018-02-05T13:34:03.676Z,8.90
2018-02-05T13:36:33.315Z,9.30
2018-02-05T13:39:02.539Z,9.20
2018-02-05T13:41:31.783Z,9.03
2018-02-05T13:44:01.021Z,9.43
2018-02-05T13:46:30.244Z,8.30
2018-02-05T13:48:59.571Z,9.13
2018-02-05T13:51:28.923Z,8.77
2018-02-05T13:53:58.623Z,8.80
2018-02-05T13:56:27.847Z,8.30
2018-02-05T13:58:57.151Z,9.03
2018-02-05T14:01:28.166Z,9.97
2018-02-05T14:03:58.579Z,8.60
2018-02-05T14:06:28.963Z,8.47
2018-02-05T14:08:58.177Z,8.47
2018-02-05T14:11:27.399Z,8.10
2018-02-05T14:13:56.608Z,8.07
2018-02-05T14:16:25.836Z,8.13
2018-02-05T14:19:00.878Z,9.23
2018-02-05T14:21:30.119Z,7.43
2018-02-05T14:23:59.355Z,7.80
2018-02-05T14:26:28.563Z,8.05
2018-02-05T14:28:57.799Z,7.85
2018-02-05T14:31:27.006Z,7.53
2018-02-05T14:33:56.379Z,7.50
2018-02-05T14:36:27.740Z,8.25
2018-02-05T14:38:57.000Z,6.85
2018-02-05T14:41:28.075Z,8.15
2018-02-05T14:43:57.486Z,7.10
2018-02-05T14:46:26.696Z,7.35
2018-02-05T14:48:55.930Z,6.85
2018-02-05T14:51:27.776Z,7.00
2018-02-05T14:54:00.129Z,7.65
2018-02-05T14:56:29.425Z,7.53
2018-02-05T14:58:58.652Z,6.90
2018-02-05T15:01:27.913Z,7.18
2018-02-05T15:03:57.094Z,18.35
2018-02-05T15:06:26.486Z,8.05
2018-02-05T15:08:55.694Z,8.02
2018-02-05T15:11:24.898Z,7.60
2018-02-05T15:15:31.982Z,7.80
2018-02-05T15:18:01.228Z,8.60
2018-02-05T15:20:30.456Z,8.52
2018-02-05T15:22:59.694Z,8.23
2018-02-05T15:25:28.976Z,8.35
2018-02-05T15:27:58.179Z,9.02
2018-02-05T15:30:27.410Z,8.40
2018-02-05T15:32:56.703Z,8.48
2018-02-05T15:35:25.920Z,7.87
2018-02-05T15:37:55.154Z,9.55
2018-02-05T15:40:24.488Z,9.40
2018-02-05T15:42:53.700Z,9.27
2018-02-05T15:45:22.963Z,9.30
2018-02-05T15:47:52.181Z,10.30
2018-02-05T15:50:21.491Z,9.60
2018-02-05T15:52:50.735Z,9.55
2018-02-05T15:55:20.518Z,11.12
2018-02-05T15:57:49.836Z,11.18
2018-02-05T16:00:19.051Z,11.80
2018-02-05T16:02:48.419Z,11.10
2018-02-05T16:05:17.699Z,10.55
2018-02-05T16:07:46.915Z,13.00
2018-02-05T16:10:16.172Z,14.07
2018-02-05T16:12:45.380Z,14.13
2018-02-05T16:15:14.611Z,16.87
2018-02-05T16:17:44.732Z,17.70
2018-02-05T16:20:13.996Z,13.60
2018-02-05T16:22:43.199Z,13.90
2018-02-05T16:25:12.447Z,12.23
2018-02-05T16:27:41.690Z,11.20
2018-02-05T16:30:10.887Z,10.95
2018-02-05T16:32:40.104Z,10.60
2018-02-05T16:35:09.391Z,10.85
2018-02-05T16:37:38.647Z,12.30
2018-02-05T16:40:07.863Z,11.73
2018-02-05T16:42:37.089Z,11.10
2018-02-05T16:45:06.417Z,10.68
2018-02-05T16:47:35.963Z,11.60
2018-02-05T16:50:05.725Z,11.05
2018-02-05T16:52:35.543Z,11.15
2018-02-05T16:55:05.237Z,13.40
2018-02-05T16:57:34.475Z,13.55
2018-02-05T17:00:03.763Z,14.00
2018-02-05T17:02:33.026Z,15.10
2018-02-05T17:05:02.258Z,15.25
2018-02-05T17:07:31.470Z,16.45
2018-02-05T17:10:00.688Z,17.27
2018-02-05T17:12:29.895Z,16.33
2018-02-05T17:14:59.112Z,15.32
2018-02-05T17:17:28.394Z,14.80
2018-02-05T17:19:57.606Z,13.73
2018-02-05T17:22:26.824Z,14.40
2018-02-05T17:24:56.055Z,14.55
2018-02-05T17:27:25.331Z,15.85
2018-02-05T17:29:54.560Z,14.98
2018-02-05T17:32:23.779Z,14.52
2018-02-05T17:34:53.127Z,13.95
2018-02-05T17:37:22.349Z,14.57
2018-02-05T17:39:52.055Z,16.27
2018-02-05T17:42:21.256Z,14.30
2018-02-05T17:44:50.553Z,14.57
2018-02-05T17:47:20.232Z,14.73
2018-02-05T17:49:49.465Z,14.05
2018-02-05T17:52:18.699Z,14.32
2018-02-05T17:54:47.983Z,19.45
2018-02-05T17:57:17.196Z,16.70
2018-02-05T17:59:46.564Z,16.67
2018-02-05T18:02:15.828Z,16.70
2018-02-05T18:04:45.297Z,14.35
2018-02-05T18:07:14.525Z,17.85
2018-02-05T18:09:43.754Z,16.08
2018-02-05T18:12:12.985Z,15.50
2018-02-05T18:14:42.200Z,16.20
2018-02-05T18:17:11.436Z,15.70
2018-02-05T18:19:40.667Z,14.73
2018-02-05T18:22:09.974Z,15.63
2018-02-05T18:24:39.219Z,15.27
2018-02-05T18:27:08.438Z,14.73
2018-02-05T18:29:37.648Z,13.98
2018-02-05T18:32:07.017Z,13.70
2018-02-05T18:34:36.288Z,16.23
2018-02-05T18:37:05.583Z,14.35
2018-02-05T18:39:34.799Z,12.63
2018-02-05T18:42:04.106Z,13.10
2018-02-05T18:44:33.589Z,13.30
2018-02-05T18:47:02.796Z,12.65
2018-02-05T18:49:32.003Z,13.25
2018-02-05T18:52:01.217Z,14.43
2018-02-05T18:54:30.533Z,13.45
2018-02-05T18:56:59.756Z,13.45
2018-02-05T18:59:28.963Z,12.07
2018-02-05T19:02:03.996Z,13.05
2018-02-05T19:04:33.522Z,11.65
2018-02-05T19:07:02.726Z,11.12
2018-02-05T19:09:32.176Z,12.27
2018-02-05T19:12:01.380Z,12.95
2018-02-05T19:14:31.356Z,12.82
2018-02-05T19:17:00.605Z,13.38
2018-02-05T19:19:29.848Z,13.07
2018-02-05T19:21:59.081Z,12.90
2018-02-05T19:24:28.474Z,11.60
2018-02-05T19:26:58.165Z,14.02
2018-02-05T19:29:27.513Z,12.77
2018-02-05T19:31:56.795Z,13.23
2018-02-05T19:34:26.008Z,13.65
2018-02-05T19:36:55.336Z,13.13
2018-02-05T19:39:24.645Z,14.18
2018-02-05T19:41:55.032Z,14.07
2018-02-05T19:44:24.298Z,14.00
2018-02-05T19:46:53.600Z,14.43
2018-02-05T19:49:22.806Z,15.63
2018-02-05T19:51:52.015Z,13.90
2018-02-05T19:54:21.250Z,14.10
2018-02-05T19:56:50.164Z,15.77
2018-02-05T19:59:20.079Z,15.13
2018-02-05T20:01:49.303Z,16.20
2018-02-05T20:04:18.577Z,15.63
2018-02-05T20:06:47.795Z,15.55
2018-02-05T20:09:17.008Z,13.77
2018-02-05T20:11:46.267Z,14.23
2018-02-05T20:14:15.628Z,14.32
2018-02-05T20:16:44.838Z,13.05
2018-02-05T20:19:14.056Z,12.85
2018-02-05T20:21:43.263Z,13.45
2018-02-05T20:24:12.515Z,12.88
2018-02-05T20:26:42.739Z,13.10
2018-02-05T20:29:12.151Z,13.80
2018-02-05T20:31:41.694Z,13.43
2018-02-05T20:34:12.793Z,12.48
2018-02-05T20:36:42.047Z,13.95
2018-02-05T20:39:11.258Z,11.85
2018-02-05T20:41:42.182Z,12.77
2018-02-05T20:44:11.431Z,12.15
2018-02-05T20:46:40.655Z,13.40
2018-02-05T20:49:09.884Z,13.25
2018-02-05T20:51:39.228Z,12.35
2018-02-05T20:54:08.914Z,12.18
2018-02-05T20:56:38.186Z,11.93
2018-02-05T20:59:07.255Z,11.93
2018-02-05T21:01:36.933Z,12.50
2018-02-05T21:04:08.979Z,12.85
2018-02-05T21:06:38.271Z,11.40
2018-02-05T21:09:07.478Z,13.57
2018-02-05T21:11:36.692Z,11.90
2018-02-05T21:14:06.103Z,13.00
2018-02-05T21:16:37.514Z,12.77
2018-02-05T21:19:07.340Z,12.60
2018-02-05T21:21:38.349Z,13.05
2018-02-05T21:24:10.203Z,13.25
2018-02-05T21:26:39.414Z,12.75
2018-02-05T21:29:08.788Z,12.57
2018-02-05T21:31:37.993Z,12.30
2018-02-05T21:34:07.199Z,12.32
2018-02-05T21:36:36.531Z,12.80
2018-02-05T21:39:05.734Z,13.52
2018-02-05T21:41:34.938Z,13.15
2018-02-05T21:44:04.138Z,12.52
2018-02-05T21:46:33.375Z,14.57
2018-02-05T21:49:02.615Z,13.40
2018-02-05T21:51:31.870Z,14.50
2018-02-05T21:54:01.123Z,13.77
2018-02-05T21:56:30.443Z,14.85
2018-02-05T21:58:59.687Z,14.10
2018-02-05T22:01:28.943Z,14.15
2018-02-05T22:03:58.295Z,15.20
2018-02-05T22:06:27.564Z,13.48
2018-02-05T22:08:56.760Z,14.48
2018-02-05T22:11:25.986Z,15.60
2018-02-05T22:13:55.188Z,13.55
2018-02-05T22:16:24.391Z,14.60
2018-02-05T22:18:53.716Z,13.95
2018-02-05T22:21:23.016Z,13.10
2018-02-05T22:23:52.624Z,13.07
2018-02-05T22:26:21.920Z,14.85
2018-02-05T22:28:51.152Z,14.15
2018-02-05T22:31:20.377Z,15.75
2018-02-05T22:33:54.235Z,14.27
2018-02-05T22:36:23.763Z,16.30
2018-02-05T22:38:53.125Z,14.75
2018-02-05T22:41:22.362Z,14.35
2018-02-05T22:43:51.565Z,14.07
2018-02-05T22:46:20.784Z,13.93
2018-02-05T22:48:50.020Z,14.90
2018-02-05T22:51:19.290Z,15.10
2018-02-05T22:53:48.501Z,14.82
2018-02-05T22:56:29.232Z,14.15
2018-02-05T22:58:58.453Z,14.75
2018-02-05T23:01:27.660Z,15.43
2018-02-05T23:03:56.863Z,15.13
2018-02-05T23:06:26.149Z,15.65
2018-02-05T23:08:55.376Z,14.98
2018-02-05T23:11:24.699Z,14.20
2018-02-05T23:13:53.916Z,14.10
2018-02-05T23:16:23.122Z,14.80
2018-02-05T23:18:52.342Z,15.45
2018-02-05T23:21:21.634Z,14.57
2018-02-05T23:23:50.848Z,14.15
2018-02-05T23:26:20.067Z,15.48
2018-02-05T23:28:49.296Z,15.05
2018-02-05T23:31:18.559Z,16.17
2018-02-05T23:33:47.765Z,14.82
2018-02-05T23:36:16.974Z,14.38
2018-02-05T23:38:46.280Z,15.45
2018-02-05T23:41:15.499Z,14.93
2018-02-05T23:43:44.697Z,14.25
2018-02-05T23:46:14.010Z,13.80
2018-02-05T23:48:43.226Z,13.68
2018-02-05T23:51:12.462Z,15.57
2018-02-05T23:53:41.719Z,14.30
2018-02-05T23:56:10.934Z,13.77
2018-02-05T23:58:40.137Z,13.57
